sensor_id;sensor_type;location;lat;lon;timestamp;P1;durP1;ratioP1;P2;durP2;ratioP2
17207;SDS011;8720;48.488;9.202;2024-02-23T00:00:00;1.10;;;0.60;;
17207;SDS011;8720;48.488;9.202;2024-02-23T00:02:30;0.90;;;0.53;;
17207;SDS011;8720;48.488;9.202;2024-02-23T00:04:58;0.90;;;0.53;;
17207;SDS011;8720;48.488;9.202;2024-02-23T00:07:25;1.93;;;0.90;;
17207;SDS011;8720;48.488;9.202;2024-02-23T00:09:52;1.00;;;0.60;;
17207;SDS011;8720;48.488;9.202;2024-02-23T00:12:21;1.00;;;0.60;;
17207;SDS011;8720;48.488;9.202;2024-02-23T00:14:49;1.53;;;0.70;;
17207;SDS011;8720;48.488;9.202;2024-02-23T00:17:16;1.53;;;0.60;;
17207;SDS011;8720;48.488;9.202;2024-02-23T00:19:45;0.90;;;0.60;;
17207;SDS011;8720;48.488;9.202;2024-02-23T00:22:12;1.10;;;0.70;;
17207;SDS011;8720;48.488;9.202;2024-02-23T00:24:40;1.00;;;0.60;;
17207;SDS011;8720;48.488;9.202;2024-02-23T00:27:07;1.20;;;0.70;;
17207;SDS011;8720;48.488;9.202;2024-02-23T00:29:36;1.70;;;0.70;;
17207;SDS011;8720;48.488;9.202;2024-02-23T00:32:03;1.70;;;0.70;;
17207;SDS011;8720;48.488;9.202;2024-02-23T00:34:32;1.53;;;0.80;;
17207;SDS011;8720;48.488;9.202;2024-02-23T00:36:59;1.40;;;0.90;;
17207;SDS011;8720;48.488;9.202;2024-02-23T00:39:27;1.83;;;0.90;;
17207;SDS011;8720;48.488;9.202;2024-02-23T00:41:54;1.87;;;0.97;;
17207;SDS011;8720;48.488;9.202;2024-02-23T00:44:22;1.07;;;0.70;;
17207;SDS011;8720;48.488;9.202;2024-02-23T00:46:50;1.87;;;0.90;;
17207;SDS011;8720;48.488;9.202;2024-02-23T00:49:18;1.17;;;0.67;;
17207;SDS011;8720;48.488;9.202;2024-02-23T00:51:45;2.50;;;0.83;;
17207;SDS011;8720;48.488;9.202;2024-02-23T00:54:12;1.50;;;0.80;;
17207;SDS011;8720;48.488;9.202;2024-02-23T00:56:40;1.57;;;0.73;;
17207;SDS011;8720;48.488;9.202;2024-02-23T00:59:07;3.53;;;1.00;;
17207;SDS011;8720;48.488;9.202;2024-02-23T01:01:34;1.40;;;0.60;;
17207;SDS011;8720;48.488;9.202;2024-02-23T01:04:03;1.80;;;0.70;;
17207;SDS011;8720;48.488;9.202;2024-02-23T01:06:30;1.63;;;0.73;;
17207;SDS011;8720;48.488;9.202;2024-02-23T01:08:58;1.57;;;0.70;;
17207;SDS011;8720;48.488;9.202;2024-02-23T01:11:25;1.33;;;0.73;;
17207;SDS011;8720;48.488;9.202;2024-02-23T01:13:52;1.27;;;0.67;;
17207;SDS011;8720;48.488;9.202;2024-02-23T01:16:20;1.20;;;0.90;;
17207;SDS011;8720;48.488;9.202;2024-02-23T01:18:47;1.00;;;0.70;;
17207;SDS011;8720;48.488;9.202;2024-02-23T01:21:16;1.47;;;0.73;;
17207;SDS011;8720;48.488;9.202;2024-02-23T01:23:43;1.77;;;0.70;;
17207;SDS011;8720;48.488;9.202;2024-02-23T01:26:11;1.47;;;0.60;;
17207;SDS011;8720;48.488;9.202;2024-02-23T01:28:38;1.10;;;0.67;;
17207;SDS011;8720;48.488;9.202;2024-02-23T01:31:07;1.50;;;0.70;;
17207;SDS011;8720;48.488;9.202;2024-02-23T01:33:37;1.10;;;0.70;;
17207;SDS011;8720;48.488;9.202;2024-02-23T01:36:04;0.90;;;0.60;;
17207;SDS011;8720;48.488;9.202;2024-02-23T01:38:34;2.50;;;0.80;;
17207;SDS011;8720;48.488;9.202;2024-02-23T01:41:01;1.20;;;0.70;;
17207;SDS011;8720;48.488;9.202;2024-02-23T01:43:29;2.70;;;0.70;;
17207;SDS011;8720;48.488;9.202;2024-02-23T01:45:56;1.83;;;0.60;;
17207;SDS011;8720;48.488;9.202;2024-02-23T01:48:24;1.10;;;0.60;;
17207;SDS011;8720;48.488;9.202;2024-02-23T01:50:52;2.03;;;0.70;;
17207;SDS011;8720;48.488;9.202;2024-02-23T01:53:21;1.10;;;0.60;;
17207;SDS011;8720;48.488;9.202;2024-02-23T01:55:52;2.70;;;0.70;;
17207;SDS011;8720;48.488;9.202;2024-02-23T01:58:21;0.90;;;0.60;;
17207;SDS011;8720;48.488;9.202;2024-02-23T02:00:48;0.93;;;0.57;;
17207;SDS011;8720;48.488;9.202;2024-02-23T02:03:16;1.07;;;0.60;;
17207;SDS011;8720;48.488;9.202;2024-02-23T02:05:43;0.93;;;0.60;;
17207;SDS011;8720;48.488;9.202;2024-02-23T02:08:11;1.00;;;0.60;;
17207;SDS011;8720;48.488;9.202;2024-02-23T02:10:39;2.27;;;0.70;;
17207;SDS011;8720;48.488;9.202;2024-02-23T02:13:09;1.10;;;0.57;;
17207;SDS011;8720;48.488;9.202;2024-02-23T02:15:36;0.97;;;0.57;;
17207;SDS011;8720;48.488;9.202;2024-02-23T02:18:04;1.03;;;0.60;;
17207;SDS011;8720;48.488;9.202;2024-02-23T02:20:32;1.63;;;0.60;;
17207;SDS011;8720;48.488;9.202;2024-02-23T02:23:01;1.10;;;0.60;;
17207;SDS011;8720;48.488;9.202;2024-02-23T02:25:29;3.33;;;0.70;;
17207;SDS011;8720;48.488;9.202;2024-02-23T02:27:56;1.10;;;0.60;;
17207;SDS011;8720;48.488;9.202;2024-02-23T02:30:25;0.90;;;0.50;;
17207;SDS011;8720;48.488;9.202;2024-02-23T02:32:53;1.40;;;0.80;;
17207;SDS011;8720;48.488;9.202;2024-02-23T02:35:20;1.00;;;0.63;;
17207;SDS011;8720;48.488;9.202;2024-02-23T02:37:47;1.27;;;0.60;;
17207;SDS011;8720;48.488;9.202;2024-02-23T02:40:14;0.93;;;0.57;;
17207;SDS011;8720;48.488;9.202;2024-02-23T02:42:42;1.00;;;0.60;;
17207;SDS011;8720;48.488;9.202;2024-02-23T02:45:09;1.40;;;0.60;;
17207;SDS011;8720;48.488;9.202;2024-02-23T02:47:38;1.10;;;0.70;;
17207;SDS011;8720;48.488;9.202;2024-02-23T02:50:05;1.23;;;0.60;;
17207;SDS011;8720;48.488;9.202;2024-02-23T02:52:33;1.03;;;0.60;;
17207;SDS011;8720;48.488;9.202;2024-02-23T02:55:00;0.90;;;0.60;;
17207;SDS011;8720;48.488;9.202;2024-02-23T02:57:28;0.90;;;0.60;;
17207;SDS011;8720;48.488;9.202;2024-02-23T02:59:55;1.13;;;0.70;;
17207;SDS011;8720;48.488;9.202;2024-02-23T03:02:23;1.00;;;0.60;;
17207;SDS011;8720;48.488;9.202;2024-02-23T03:04:51;1.50;;;0.60;;
17207;SDS011;8720;48.488;9.202;2024-02-23T03:07:20;1.00;;;0.70;;
17207;SDS011;8720;48.488;9.202;2024-02-23T03:09:48;1.30;;;0.83;;
17207;SDS011;8720;48.488;9.202;2024-02-23T03:12:16;2.50;;;0.70;;
17207;SDS011;8720;48.488;9.202;2024-02-23T03:14:43;1.73;;;0.70;;
17207;SDS011;8720;48.488;9.202;2024-02-23T03:17:11;0.93;;;0.60;;
17207;SDS011;8720;48.488;9.202;2024-02-23T03:19:38;1.67;;;0.70;;
17207;SDS011;8720;48.488;9.202;2024-02-23T03:22:07;1.57;;;0.60;;
17207;SDS011;8720;48.488;9.202;2024-02-23T03:24:34;1.00;;;0.70;;
17207;SDS011;8720;48.488;9.202;2024-02-23T03:27:02;2.23;;;0.70;;
17207;SDS011;8720;48.488;9.202;2024-02-23T03:29:30;1.63;;;0.90;;
17207;SDS011;8720;48.488;9.202;2024-02-23T03:31:57;1.10;;;0.80;;
17207;SDS011;8720;48.488;9.202;2024-02-23T03:34:26;1.53;;;0.90;;
17207;SDS011;8720;48.488;9.202;2024-02-23T03:36:54;1.00;;;0.70;;
17207;SDS011;8720;48.488;9.202;2024-02-23T03:39:22;2.60;;;1.00;;
17207;SDS011;8720;48.488;9.202;2024-02-23T03:41:50;1.10;;;0.70;;
17207;SDS011;8720;48.488;9.202;2024-02-23T03:44:17;2.13;;;0.60;;
17207;SDS011;8720;48.488;9.202;2024-02-23T03:46:45;1.50;;;1.20;;
17207;SDS011;8720;48.488;9.202;2024-02-23T03:49:12;1.93;;;0.80;;
17207;SDS011;8720;48.488;9.202;2024-02-23T03:51:39;4.80;;;0.80;;
17207;SDS011;8720;48.488;9.202;2024-02-23T03:54:07;1.10;;;0.70;;
17207;SDS011;8720;48.488;9.202;2024-02-23T03:56:39;1.07;;;0.60;;
17207;SDS011;8720;48.488;9.202;2024-02-23T03:59:07;1.10;;;0.60;;
17207;SDS011;8720;48.488;9.202;2024-02-23T04:01:35;1.00;;;0.60;;
17207;SDS011;8720;48.488;9.202;2024-02-23T04:04:03;1.27;;;0.70;;
17207;SDS011;8720;48.488;9.202;2024-02-23T04:06:31;2.13;;;1.00;;
17207;SDS011;8720;48.488;9.202;2024-02-23T04:08:59;1.40;;;0.80;;
17207;SDS011;8720;48.488;9.202;2024-02-23T04:11:30;1.00;;;0.70;;
17207;SDS011;8720;48.488;9.202;2024-02-23T04:13:58;1.10;;;0.60;;
17207;SDS011;8720;48.488;9.202;2024-02-23T04:16:26;1.60;;;0.70;;
17207;SDS011;8720;48.488;9.202;2024-02-23T04:18:54;1.07;;;0.70;;
17207;SDS011;8720;48.488;9.202;2024-02-23T04:21:22;2.80;;;0.70;;
17207;SDS011;8720;48.488;9.202;2024-02-23T04:23:50;1.30;;;0.70;;
17207;SDS011;8720;48.488;9.202;2024-02-23T04:26:17;1.40;;;0.70;;
17207;SDS011;8720;48.488;9.202;2024-02-23T04:28:44;1.63;;;0.80;;
17207;SDS011;8720;48.488;9.202;2024-02-23T04:31:13;1.27;;;0.63;;
17207;SDS011;8720;48.488;9.202;2024-02-23T04:33:40;1.60;;;0.80;;
17207;SDS011;8720;48.488;9.202;2024-02-23T04:36:08;1.43;;;0.67;;
17207;SDS011;8720;48.488;9.202;2024-02-23T04:38:35;1.17;;;1.00;;
17207;SDS011;8720;48.488;9.202;2024-02-23T04:41:03;1.20;;;0.80;;
17207;SDS011;8720;48.488;9.202;2024-02-23T04:43:31;1.07;;;0.70;;
17207;SDS011;8720;48.488;9.202;2024-02-23T04:45:59;1.07;;;0.67;;
17207;SDS011;8720;48.488;9.202;2024-02-23T04:48:29;1.97;;;0.70;;
17207;SDS011;8720;48.488;9.202;2024-02-23T04:50:57;3.63;;;0.70;;
17207;SDS011;8720;48.488;9.202;2024-02-23T04:53:24;1.90;;;0.83;;
17207;SDS011;8720;48.488;9.202;2024-02-23T04:55:51;1.20;;;0.70;;
17207;SDS011;8720;48.488;9.202;2024-02-23T04:58:19;3.93;;;0.73;;
17207;SDS011;8720;48.488;9.202;2024-02-23T05:00:50;1.90;;;1.23;;
17207;SDS011;8720;48.488;9.202;2024-02-23T05:03:19;1.40;;;0.80;;
17207;SDS011;8720;48.488;9.202;2024-02-23T05:05:47;1.23;;;0.70;;
17207;SDS011;8720;48.488;9.202;2024-02-23T05:08:18;1.10;;;0.70;;
17207;SDS011;8720;48.488;9.202;2024-02-23T05:10:46;1.30;;;0.70;;
17207;SDS011;8720;48.488;9.202;2024-02-23T05:13:14;2.10;;;0.87;;
17207;SDS011;8720;48.488;9.202;2024-02-23T05:15:41;2.57;;;0.90;;
17207;SDS011;8720;48.488;9.202;2024-02-23T05:18:08;1.20;;;0.90;;
17207;SDS011;8720;48.488;9.202;2024-02-23T05:20:36;1.10;;;0.80;;
17207;SDS011;8720;48.488;9.202;2024-02-23T05:23:04;2.30;;;0.90;;
17207;SDS011;8720;48.488;9.202;2024-02-23T05:25:32;1.30;;;0.80;;
17207;SDS011;8720;48.488;9.202;2024-02-23T05:27:59;2.17;;;0.70;;
17207;SDS011;8720;48.488;9.202;2024-02-23T05:30:26;1.03;;;0.60;;
17207;SDS011;8720;48.488;9.202;2024-02-23T05:32:56;1.40;;;0.90;;
17207;SDS011;8720;48.488;9.202;2024-02-23T05:35:24;1.87;;;0.97;;
17207;SDS011;8720;48.488;9.202;2024-02-23T05:37:52;2.47;;;0.97;;
17207;SDS011;8720;48.488;9.202;2024-02-23T05:40:21;2.27;;;0.80;;
17207;SDS011;8720;48.488;9.202;2024-02-23T05:42:49;2.57;;;1.00;;
17207;SDS011;8720;48.488;9.202;2024-02-23T05:45:16;2.90;;;1.60;;
17207;SDS011;8720;48.488;9.202;2024-02-23T05:47:44;3.77;;;1.67;;
17207;SDS011;8720;48.488;9.202;2024-02-23T05:50:11;3.87;;;2.00;;
17207;SDS011;8720;48.488;9.202;2024-02-23T05:52:39;3.73;;;1.83;;
17207;SDS011;8720;48.488;9.202;2024-02-23T05:55:06;4.27;;;2.00;;
17207;SDS011;8720;48.488;9.202;2024-02-23T05:57:36;2.63;;;1.50;;
17207;SDS011;8720;48.488;9.202;2024-02-23T06:00:03;3.23;;;1.80;;
17207;SDS011;8720;48.488;9.202;2024-02-23T06:02:38;3.23;;;1.40;;
17207;SDS011;8720;48.488;9.202;2024-02-23T06:05:06;3.40;;;0.90;;
17207;SDS011;8720;48.488;9.202;2024-02-23T06:07:34;2.77;;;1.43;;
17207;SDS011;8720;48.488;9.202;2024-02-23T06:10:02;1.30;;;0.80;;
17207;SDS011;8720;48.488;9.202;2024-02-23T06:12:30;1.90;;;0.90;;
17207;SDS011;8720;48.488;9.202;2024-02-23T06:14:59;2.40;;;0.70;;
17207;SDS011;8720;48.488;9.202;2024-02-23T06:17:26;1.93;;;0.80;;
17207;SDS011;8720;48.488;9.202;2024-02-23T06:19:53;3.20;;;1.13;;
17207;SDS011;8720;48.488;9.202;2024-02-23T06:22:22;2.10;;;0.90;;
17207;SDS011;8720;48.488;9.202;2024-02-23T06:24:50;1.77;;;0.90;;
17207;SDS011;8720;48.488;9.202;2024-02-23T06:27:18;1.70;;;0.83;;
17207;SDS011;8720;48.488;9.202;2024-02-23T06:29:47;1.60;;;1.00;;
17207;SDS011;8720;48.488;9.202;2024-02-23T06:32:16;1.77;;;1.10;;
17207;SDS011;8720;48.488;9.202;2024-02-23T06:34:44;1.60;;;0.90;;
17207;SDS011;8720;48.488;9.202;2024-02-23T06:37:11;5.53;;;1.10;;
17207;SDS011;8720;48.488;9.202;2024-02-23T06:39:39;1.80;;;1.00;;
17207;SDS011;8720;48.488;9.202;2024-02-23T06:42:06;1.90;;;1.00;;
17207;SDS011;8720;48.488;9.202;2024-02-23T06:44:33;4.17;;;1.30;;
17207;SDS011;8720;48.488;9.202;2024-02-23T06:47:01;1.90;;;0.97;;
17207;SDS011;8720;48.488;9.202;2024-02-23T06:49:30;2.13;;;1.00;;
17207;SDS011;8720;48.488;9.202;2024-02-23T06:51:57;1.47;;;1.10;;
17207;SDS011;8720;48.488;9.202;2024-02-23T06:54:24;2.30;;;1.20;;
17207;SDS011;8720;48.488;9.202;2024-02-23T06:56:52;3.00;;;1.50;;
17207;SDS011;8720;48.488;9.202;2024-02-23T06:59:19;1.93;;;1.53;;
17207;SDS011;8720;48.488;9.202;2024-02-23T07:01:49;3.63;;;2.03;;
17207;SDS011;8720;48.488;9.202;2024-02-23T07:04:17;2.43;;;1.60;;
17207;SDS011;8720;48.488;9.202;2024-02-23T07:06:46;2.10;;;1.30;;
17207;SDS011;8720;48.488;9.202;2024-02-23T07:09:13;3.07;;;1.73;;
17207;SDS011;8720;48.488;9.202;2024-02-23T07:11:41;2.07;;;1.63;;
17207;SDS011;8720;48.488;9.202;2024-02-23T07:14:09;2.50;;;1.40;;
17207;SDS011;8720;48.488;9.202;2024-02-23T07:16:38;3.43;;;1.40;;
17207;SDS011;8720;48.488;9.202;2024-02-23T07:19:06;1.87;;;1.40;;
17207;SDS011;8720;48.488;9.202;2024-02-23T07:21:34;3.60;;;1.50;;
17207;SDS011;8720;48.488;9.202;2024-02-23T07:24:03;2.90;;;1.57;;
17207;SDS011;8720;48.488;9.202;2024-02-23T07:26:32;4.20;;;2.03;;
17207;SDS011;8720;48.488;9.202;2024-02-23T07:28:59;2.53;;;1.30;;
17207;SDS011;8720;48.488;9.202;2024-02-23T07:31:26;6.00;;;2.60;;
17207;SDS011;8720;48.488;9.202;2024-02-23T07:33:54;3.83;;;1.70;;
17207;SDS011;8720;48.488;9.202;2024-02-23T07:36:21;3.33;;;1.30;;
17207;SDS011;8720;48.488;9.202;2024-02-23T07:38:49;3.03;;;1.50;;
17207;SDS011;8720;48.488;9.202;2024-02-23T07:41:17;1.80;;;1.20;;
17207;SDS011;8720;48.488;9.202;2024-02-23T07:43:45;2.33;;;1.00;;
17207;SDS011;8720;48.488;9.202;2024-02-23T07:46:12;1.30;;;0.80;;
17207;SDS011;8720;48.488;9.202;2024-02-23T07:48:39;1.70;;;1.20;;
17207;SDS011;8720;48.488;9.202;2024-02-23T07:51:07;4.70;;;1.50;;
17207;SDS011;8720;48.488;9.202;2024-02-23T07:53:34;3.23;;;1.20;;
17207;SDS011;8720;48.488;9.202;2024-02-23T07:56:01;2.83;;;1.20;;
17207;SDS011;8720;48.488;9.202;2024-02-23T07:58:31;3.77;;;0.80;;
17207;SDS011;8720;48.488;9.202;2024-02-23T08:00:58;2.33;;;1.20;;
17207;SDS011;8720;48.488;9.202;2024-02-23T08:03:25;3.47;;;1.30;;
17207;SDS011;8720;48.488;9.202;2024-02-23T08:05:53;2.03;;;0.90;;
17207;SDS011;8720;48.488;9.202;2024-02-23T08:08:20;4.03;;;1.00;;
17207;SDS011;8720;48.488;9.202;2024-02-23T08:10:49;2.40;;;1.00;;
17207;SDS011;8720;48.488;9.202;2024-02-23T08:13:16;3.90;;;1.40;;
17207;SDS011;8720;48.488;9.202;2024-02-23T08:15:45;2.33;;;1.90;;
17207;SDS011;8720;48.488;9.202;2024-02-23T08:18:13;3.77;;;1.40;;
17207;SDS011;8720;48.488;9.202;2024-02-23T08:20:40;5.20;;;1.80;;
17207;SDS011;8720;48.488;9.202;2024-02-23T08:23:08;4.47;;;2.10;;
17207;SDS011;8720;48.488;9.202;2024-02-23T08:25:36;2.40;;;1.77;;
17207;SDS011;8720;48.488;9.202;2024-02-23T08:28:04;2.80;;;1.83;;
17207;SDS011;8720;48.488;9.202;2024-02-23T08:30:32;1.63;;;1.33;;
17207;SDS011;8720;48.488;9.202;2024-02-23T08:33:01;5.27;;;1.60;;
17207;SDS011;8720;48.488;9.202;2024-02-23T08:35:29;2.30;;;1.70;;
17207;SDS011;8720;48.488;9.202;2024-02-23T08:37:57;3.93;;;1.50;;
17207;SDS011;8720;48.488;9.202;2024-02-23T08:40:25;2.30;;;1.30;;
17207;SDS011;8720;48.488;9.202;2024-02-23T08:42:52;2.03;;;1.10;;
17207;SDS011;8720;48.488;9.202;2024-02-23T08:45:20;3.80;;;1.20;;
17207;SDS011;8720;48.488;9.202;2024-02-23T08:47:48;1.63;;;1.40;;
17207;SDS011;8720;48.488;9.202;2024-02-23T08:50:17;1.67;;;1.30;;
17207;SDS011;8720;48.488;9.202;2024-02-23T08:52:44;2.63;;;1.30;;
17207;SDS011;8720;48.488;9.202;2024-02-23T08:55:12;3.07;;;1.10;;
17207;SDS011;8720;48.488;9.202;2024-02-23T08:57:39;1.80;;;1.23;;
17207;SDS011;8720;48.488;9.202;2024-02-23T09:00:07;4.03;;;1.57;;
17207;SDS011;8720;48.488;9.202;2024-02-23T09:02:37;4.10;;;1.60;;
17207;SDS011;8720;48.488;9.202;2024-02-23T09:05:05;3.47;;;2.37;;
17207;SDS011;8720;48.488;9.202;2024-02-23T09:07:34;4.60;;;1.60;;
17207;SDS011;8720;48.488;9.202;2024-02-23T09:10:02;2.33;;;1.30;;
17207;SDS011;8720;48.488;9.202;2024-02-23T09:12:30;3.13;;;1.20;;
17207;SDS011;8720;48.488;9.202;2024-02-23T09:14:58;5.83;;;1.10;;
17207;SDS011;8720;48.488;9.202;2024-02-23T09:17:25;1.80;;;1.20;;
17207;SDS011;8720;48.488;9.202;2024-02-23T09:19:52;2.70;;;1.10;;
17207;SDS011;8720;48.488;9.202;2024-02-23T09:22:20;2.20;;;1.20;;
17207;SDS011;8720;48.488;9.202;2024-02-23T09:24:49;4.13;;;1.00;;
17207;SDS011;8720;48.488;9.202;2024-02-23T09:27:16;2.60;;;1.07;;
17207;SDS011;8720;48.488;9.202;2024-02-23T09:29:47;2.53;;;1.27;;
17207;SDS011;8720;48.488;9.202;2024-02-23T09:32:14;4.93;;;1.20;;
17207;SDS011;8720;48.488;9.202;2024-02-23T09:34:41;2.53;;;1.10;;
17207;SDS011;8720;48.488;9.202;2024-02-23T09:37:09;3.53;;;1.03;;
17207;SDS011;8720;48.488;9.202;2024-02-23T09:39:36;3.13;;;0.90;;
17207;SDS011;8720;48.488;9.202;2024-02-23T09:42:06;2.97;;;1.10;;
17207;SDS011;8720;48.488;9.202;2024-02-23T09:44:37;1.90;;;1.10;;
17207;SDS011;8720;48.488;9.202;2024-02-23T09:47:05;4.80;;;1.37;;
17207;SDS011;8720;48.488;9.202;2024-02-23T09:49:36;2.53;;;1.00;;
17207;SDS011;8720;48.488;9.202;2024-02-23T09:52:07;2.50;;;1.20;;
17207;SDS011;8720;48.488;9.202;2024-02-23T09:54:36;5.07;;;1.10;;
17207;SDS011;8720;48.488;9.202;2024-02-23T09:57:06;4.63;;;1.20;;
17207;SDS011;8720;48.488;9.202;2024-02-23T09:59:35;2.73;;;1.27;;
17207;SDS011;8720;48.488;9.202;2024-02-23T10:02:03;1.83;;;0.90;;
17207;SDS011;8720;48.488;9.202;2024-02-23T10:04:36;4.27;;;1.67;;
17207;SDS011;8720;48.488;9.202;2024-02-23T10:07:05;3.27;;;1.03;;
17207;SDS011;8720;48.488;9.202;2024-02-23T10:09:33;2.33;;;1.10;;
17207;SDS011;8720;48.488;9.202;2024-02-23T10:12:00;4.87;;;1.30;;
17207;SDS011;8720;48.488;9.202;2024-02-23T10:14:29;5.20;;;1.10;;
17207;SDS011;8720;48.488;9.202;2024-02-23T10:16:57;2.50;;;0.97;;
17207;SDS011;8720;48.488;9.202;2024-02-23T10:19:25;2.93;;;1.10;;
17207;SDS011;8720;48.488;9.202;2024-02-23T10:21:54;3.87;;;1.53;;
17207;SDS011;8720;48.488;9.202;2024-02-23T10:24:23;5.40;;;1.57;;
17207;SDS011;8720;48.488;9.202;2024-02-23T10:26:51;2.87;;;1.30;;
17207;SDS011;8720;48.488;9.202;2024-02-23T10:29:18;2.57;;;1.10;;
17207;SDS011;8720;48.488;9.202;2024-02-23T10:31:47;1.93;;;1.10;;
17207;SDS011;8720;48.488;9.202;2024-02-23T10:34:18;2.60;;;1.00;;
17207;SDS011;8720;48.488;9.202;2024-02-23T10:36:46;3.73;;;1.10;;
17207;SDS011;8720;48.488;9.202;2024-02-23T10:39:16;2.17;;;1.00;;
17207;SDS011;8720;48.488;9.202;2024-02-23T10:41:46;2.13;;;1.00;;
17207;SDS011;8720;48.488;9.202;2024-02-23T10:44:23;1.90;;;1.10;;
17207;SDS011;8720;48.488;9.202;2024-02-23T10:46:54;3.90;;;1.27;;
17207;SDS011;8720;48.488;9.202;2024-02-23T10:49:24;3.17;;;1.40;;
17207;SDS011;8720;48.488;9.202;2024-02-23T10:51:52;5.03;;;1.47;;
17207;SDS011;8720;48.488;9.202;2024-02-23T10:54:21;2.90;;;1.10;;
17207;SDS011;8720;48.488;9.202;2024-02-23T10:56:50;3.23;;;1.60;;
17207;SDS011;8720;48.488;9.202;2024-02-23T10:59:18;3.83;;;1.33;;
17207;SDS011;8720;48.488;9.202;2024-02-23T11:01:47;4.40;;;1.23;;
17207;SDS011;8720;48.488;9.202;2024-02-23T11:04:20;2.87;;;1.03;;
17207;SDS011;8720;48.488;9.202;2024-02-23T11:06:49;2.80;;;1.07;;
17207;SDS011;8720;48.488;9.202;2024-02-23T11:09:20;1.80;;;1.30;;
17207;SDS011;8720;48.488;9.202;2024-02-23T11:11:52;5.40;;;2.10;;
17207;SDS011;8720;48.488;9.202;2024-02-23T11:14:30;5.13;;;1.20;;
17207;SDS011;8720;48.488;9.202;2024-02-23T11:16:59;2.37;;;1.17;;
17207;SDS011;8720;48.488;9.202;2024-02-23T11:19:35;1.27;;;0.90;;
17207;SDS011;8720;48.488;9.202;2024-02-23T11:22:09;2.13;;;0.97;;
17207;SDS011;8720;48.488;9.202;2024-02-23T11:24:41;3.47;;;1.17;;
17207;SDS011;8720;48.488;9.202;2024-02-23T11:27:13;2.73;;;1.40;;
17207;SDS011;8720;48.488;9.202;2024-02-23T11:29:44;2.30;;;1.10;;
17207;SDS011;8720;48.488;9.202;2024-02-23T11:32:14;2.10;;;1.03;;
17207;SDS011;8720;48.488;9.202;2024-02-23T11:34:54;2.77;;;1.10;;
17207;SDS011;8720;48.488;9.202;2024-02-23T11:37:23;3.43;;;1.77;;
17207;SDS011;8720;48.488;9.202;2024-02-23T11:39:50;3.97;;;1.63;;
17207;SDS011;8720;48.488;9.202;2024-02-23T11:42:18;7.00;;;1.40;;
17207;SDS011;8720;48.488;9.202;2024-02-23T11:44:49;2.90;;;1.20;;
17207;SDS011;8720;48.488;9.202;2024-02-23T11:47:19;1.93;;;1.30;;
17207;SDS011;8720;48.488;9.202;2024-02-23T11:49:47;2.20;;;1.20;;
17207;SDS011;8720;48.488;9.202;2024-02-23T11:52:15;1.90;;;1.03;;
17207;SDS011;8720;48.488;9.202;2024-02-23T11:54:44;2.00;;;1.23;;
17207;SDS011;8720;48.488;9.202;2024-02-23T11:57:11;3.23;;;1.43;;
17207;SDS011;8720;48.488;9.202;2024-02-23T11:59:39;2.47;;;1.40;;
17207;SDS011;8720;48.488;9.202;2024-02-23T12:02:07;2.90;;;1.30;;
17207;SDS011;8720;48.488;9.202;2024-02-23T12:04:34;3.30;;;1.40;;
17207;SDS011;8720;48.488;9.202;2024-02-23T12:07:02;3.30;;;1.23;;
17207;SDS011;8720;48.488;9.202;2024-02-23T12:09:32;4.33;;;1.47;;
17207;SDS011;8720;48.488;9.202;2024-02-23T12:11:59;2.97;;;1.40;;
17207;SDS011;8720;48.488;9.202;2024-02-23T12:14:27;2.90;;;1.20;;
17207;SDS011;8720;48.488;9.202;2024-02-23T12:16:56;6.00;;;1.27;;
17207;SDS011;8720;48.488;9.202;2024-02-23T12:19:24;2.47;;;1.27;;
17207;SDS011;8720;48.488;9.202;2024-02-23T12:21:51;2.40;;;1.27;;
17207;SDS011;8720;48.488;9.202;2024-02-23T12:24:20;6.50;;;1.60;;
17207;SDS011;8720;48.488;9.202;2024-02-23T12:26:54;5.00;;;1.80;;
17207;SDS011;8720;48.488;9.202;2024-02-23T12:29:21;6.60;;;2.10;;
17207;SDS011;8720;48.488;9.202;2024-02-23T12:31:49;2.90;;;1.30;;
17207;SDS011;8720;48.488;9.202;2024-02-23T12:34:16;6.27;;;1.60;;
17207;SDS011;8720;48.488;9.202;2024-02-23T12:36:46;3.63;;;1.20;;
17207;SDS011;8720;48.488;9.202;2024-02-23T12:39:13;4.70;;;1.40;;
17207;SDS011;8720;48.488;9.202;2024-02-23T12:41:41;3.40;;;1.33;;
17207;SDS011;8720;48.488;9.202;2024-02-23T12:44:09;2.93;;;1.27;;
17207;SDS011;8720;48.488;9.202;2024-02-23T12:46:37;2.63;;;1.40;;
17207;SDS011;8720;48.488;9.202;2024-02-23T12:49:05;4.43;;;1.30;;
17207;SDS011;8720;48.488;9.202;2024-02-23T12:51:32;4.13;;;1.53;;
17207;SDS011;8720;48.488;9.202;2024-02-23T12:54:00;5.63;;;1.73;;
17207;SDS011;8720;48.488;9.202;2024-02-23T12:56:28;2.83;;;1.37;;
17207;SDS011;8720;48.488;9.202;2024-02-23T12:58:56;3.90;;;1.23;;
17207;SDS011;8720;48.488;9.202;2024-02-23T13:01:24;3.67;;;1.20;;
17207;SDS011;8720;48.488;9.202;2024-02-23T13:03:52;3.10;;;1.20;;
17207;SDS011;8720;48.488;9.202;2024-02-23T13:06:20;4.40;;;1.47;;
17207;SDS011;8720;48.488;9.202;2024-02-23T13:08:47;5.10;;;1.60;;
17207;SDS011;8720;48.488;9.202;2024-02-23T13:11:15;6.73;;;2.20;;
17207;SDS011;8720;48.488;9.202;2024-02-23T13:13:42;3.00;;;1.43;;
17207;SDS011;8720;48.488;9.202;2024-02-23T13:16:10;4.13;;;1.50;;
17207;SDS011;8720;48.488;9.202;2024-02-23T13:18:41;4.57;;;1.07;;
17207;SDS011;8720;48.488;9.202;2024-02-23T13:21:09;2.27;;;1.30;;
17207;SDS011;8720;48.488;9.202;2024-02-23T13:23:36;2.57;;;1.30;;
17207;SDS011;8720;48.488;9.202;2024-02-23T13:26:04;3.50;;;1.47;;
17207;SDS011;8720;48.488;9.202;2024-02-23T13:28:33;2.20;;;1.07;;
17207;SDS011;8720;48.488;9.202;2024-02-23T13:31:00;4.17;;;1.13;;
17207;SDS011;8720;48.488;9.202;2024-02-23T13:33:28;4.20;;;1.43;;
17207;SDS011;8720;48.488;9.202;2024-02-23T13:35:56;4.13;;;1.50;;
17207;SDS011;8720;48.488;9.202;2024-02-23T13:38:24;3.43;;;1.20;;
17207;SDS011;8720;48.488;9.202;2024-02-23T13:40:51;2.87;;;1.40;;
17207;SDS011;8720;48.488;9.202;2024-02-23T13:43:19;3.43;;;1.17;;
17207;SDS011;8720;48.488;9.202;2024-02-23T13:45:47;4.73;;;1.50;;
17207;SDS011;8720;48.488;9.202;2024-02-23T13:48:17;2.10;;;1.00;;
17207;SDS011;8720;48.488;9.202;2024-02-23T13:50:46;2.33;;;1.77;;
17207;SDS011;8720;48.488;9.202;2024-02-23T13:53:15;5.30;;;1.73;;
17207;SDS011;8720;48.488;9.202;2024-02-23T13:55:42;2.73;;;1.10;;
17207;SDS011;8720;48.488;9.202;2024-02-23T13:58:10;2.10;;;1.30;;
17207;SDS011;8720;48.488;9.202;2024-02-23T14:00:38;2.73;;;1.20;;
17207;SDS011;8720;48.488;9.202;2024-02-23T14:03:05;5.10;;;1.23;;
17207;SDS011;8720;48.488;9.202;2024-02-23T14:05:34;4.33;;;1.30;;
17207;SDS011;8720;48.488;9.202;2024-02-23T14:08:01;5.17;;;1.50;;
17207;SDS011;8720;48.488;9.202;2024-02-23T14:10:31;4.57;;;1.30;;
17207;SDS011;8720;48.488;9.202;2024-02-23T14:12:59;3.03;;;1.17;;
17207;SDS011;8720;48.488;9.202;2024-02-23T14:15:27;3.30;;;1.20;;
17207;SDS011;8720;48.488;9.202;2024-02-23T14:17:54;2.47;;;1.10;;
17207;SDS011;8720;48.488;9.202;2024-02-23T14:20:22;4.20;;;1.23;;
17207;SDS011;8720;48.488;9.202;2024-02-23T14:22:50;3.60;;;1.30;;
17207;SDS011;8720;48.488;9.202;2024-02-23T14:25:18;3.73;;;1.40;;
17207;SDS011;8720;48.488;9.202;2024-02-23T14:27:46;6.37;;;2.10;;
17207;SDS011;8720;48.488;9.202;2024-02-23T14:30:14;2.50;;;1.50;;
17207;SDS011;8720;48.488;9.202;2024-02-23T14:32:41;2.67;;;1.30;;
17207;SDS011;8720;48.488;9.202;2024-02-23T14:35:09;2.30;;;1.30;;
17207;SDS011;8720;48.488;9.202;2024-02-23T14:37:37;2.80;;;1.37;;
17207;SDS011;8720;48.488;9.202;2024-02-23T14:40:05;3.00;;;1.27;;
17207;SDS011;8720;48.488;9.202;2024-02-23T14:42:34;5.30;;;1.70;;
17207;SDS011;8720;48.488;9.202;2024-02-23T14:45:03;2.20;;;1.33;;
17207;SDS011;8720;48.488;9.202;2024-02-23T14:47:32;4.13;;;1.80;;
17207;SDS011;8720;48.488;9.202;2024-02-23T14:50:00;4.60;;;1.50;;
17207;SDS011;8720;48.488;9.202;2024-02-23T14:52:27;4.40;;;1.63;;
17207;SDS011;8720;48.488;9.202;2024-02-23T14:54:55;3.33;;;1.50;;
17207;SDS011;8720;48.488;9.202;2024-02-23T14:57:23;4.17;;;1.60;;
17207;SDS011;8720;48.488;9.202;2024-02-23T14:59:50;5.33;;;1.80;;
17207;SDS011;8720;48.488;9.202;2024-02-23T15:02:20;2.73;;;1.60;;
17207;SDS011;8720;48.488;9.202;2024-02-23T15:04:48;3.40;;;1.17;;